x

Buoy B01 - Western Maine Shelf (44030) Wave Buoy

12:04pm - Fri 20th Jan 2017 All times are EST. -5 hours from GMT.

  • Sig Wave height 5.6ft
  • Peak Period 11s
  • Wind
    7mph, 9mph gusts
  • Sea Temp 43°f
  • 空気 Temp 38°f
  • Sea Pressure 1016mb
  • Buoy B01 - Western Maine Shelf
  • Buoy B01 - Western Maine Shelf

More Historic Weather Station data

Upgrade to MSW Pro to gain access to the past 30 days of data for over 8000 Wavebouys and Weather Stations around the globe.

Join Pro

Comparision Forecast

View Surf forecast
   
Fri 01/20 12:04pm 5.5ft 11s 7 9 mph 1016mb 43f 38f
11:04am 5ft 11s 4 7 mph 1017mb 43f 38f
10:04am 5ft 11s 7 9 mph 1017.3mb 43f 38f
9:04am 6ft 11s 11 13 mph 1016.8mb 43f 38f
8:04am 4.5ft 11s 11 13 mph 1016.8mb 43f 38f
7:04am 7ft 11s 11 13 mph 1016.4mb 43f 38f
6:04am 5.5ft 11s 9 11 mph 1016.2mb 44f 38f
5:04am 5ft 11s 11 13 mph 1016.1mb 44f 38f
4:04am 5.5ft 11s 11 13 mph 1015.8mb 44f 39f
3:04am 6ft 11s 13 18 mph 1015.5mb 43f 39f
2:04am 6ft 11s 13 18 mph 1015mb 44f 39f
1:04am 5ft 11s 9 11 mph 1015.1mb 44f 39f
12:04am 6ft 11s 9 11 mph 1016.1mb 44f 39f
Thu 01/19 11:04pm 5.5ft 11s 9 11 mph 1016.8mb 44f 39f
10:04pm 5ft 8s 7 11 mph 1016.6mb 44f 40f
9:04pm 5ft 11s 2 4 mph 1015.9mb 44f 41f
8:04pm 5ft 11s 2
mph
1015.4mb 44f 40f
7:04pm 5ft 11s 4
mph
1015mb 44f 40f
6:04pm 5.5ft 8s 4 7 mph 1014.1mb 43f 40f
5:04pm 6ft 11s 2 4 mph 1013.5mb 43f 39f
4:04pm 5ft 11s 2 4 mph 1013.3mb 44f 39f
3:04pm 5.5ft 11s 4
mph
1013mb 44f 40f
2:04pm 5ft 8s 4
mph
1013.1mb 44f 37f
1:04pm 5ft 8s 4 7 mph 1013.7mb 44f 35f
12:04pm 6ft 8s 4 9 mph 1014.2mb 43f 34f
11:04am 6ft 8s 7 9 mph 1015.2mb 43f 33f
10:04am 6ft 8s 4 7 mph 1015.8mb 43f 33f
9:04am 5.5ft 8s 4 9 mph 1015.6mb 43f 32f
8:04am 6ft 8s 7 9 mph 1015.7mb 43f 31f
7:04am 6ft 8s 4 7 mph 1015.4mb 43f 31f
6:04am 6.5ft 8s 4 7 mph 1015.4mb 42f 31f
5:04am 6ft 8s 9 11 mph 1015.3mb 42f 30f
4:04am 7ft 8s 11 13 mph 1015.6mb 42f 30f
3:04am 6ft 8s 11 13 mph 1015.7mb 42f 30f
2:04am 6ft 8s 16 18 mph 1016mb 42f 31f
1:04am 7ft 8s 16 18 mph 1016mb 42f 30f
12:04am 7ft 8s 18 20 mph 1016.7mb 42f 29f
Wed 01/18 11:04pm 8.5ft 8s 18 22 mph 1016.8mb 42f 30f
10:04pm 9ft 8s 16 20 mph 1016.6mb 42f 31f
9:04pm 10ft 8s 20 25 mph 1017.2mb 42f 33f
8:04pm 9.5ft 8s 16 25 mph 1017.8mb 42f 34f
7:04pm 10ft 8s 16 20 mph 1017.8mb 42f 38f
6:04pm 10ft 11s 18 22 mph 1017.3mb 42f 39f
5:04pm 9ft 8s 20 25 mph 1016.6mb 42f 38f
4:04pm 11ft 8s 20 25 mph 1016.3mb 42f 38f
3:04pm 9.5ft 8s 20 25 mph 1016.1mb 42f 38f
2:04pm 9.5ft 8s 20 27 mph 1015.8mb 42f 38f
1:04pm 9.5ft 8s 20 25 mph 1015.5mb 42f 38f
12:04pm 7ft 6s 20 27 mph 1015.9mb 42f 38f
11:04am 7ft 6s 20 25 mph 1016.3mb 42f 38f
10:04am 6.5ft 6s 20 22 mph 1017.4mb 42f 38f
9:04am 5ft 5s 20 22 mph 1017.5mb 42f 38f
8:04am 5ft 5s 20 25 mph 1017.2mb 42f 38f
7:04am 4.5ft 5s 20 22 mph 1017.1mb 42f 38f
6:04am 5.5ft 6s 18 25 mph 1017.3mb 42f 37f
5:04am 5ft 6s 22 29 mph 1017.1mb 42f 36f
4:04am 5ft 5s 22 27 mph 1017.3mb 42f 36f
3:04am 5.5ft 5s 22 27 mph 1018.2mb 42f 35f
2:04am 5ft 5s 20 25 mph 1019.1mb 42f 36f
1:04am 4.5ft 5s 18 22 mph 1019.9mb 42f 35f
12:04am 4ft 5s 20 22 mph 1020.6mb 42f 35f
Tue 01/17 11:04pm 4ft 4s 20 25 mph 1020.7mb 42f 36f
10:04pm 3ft 4s 22 25 mph 1020.9mb 42f 39f
9:04pm 3ft 4s 18 22 mph 1021.8mb 42f 39f
8:04pm 2.5ft 4s 18 20 mph 1022.5mb 42f 39f
7:04pm 2.5ft 3s 16 20 mph 1022.9mb 42f 39f
6:04pm 2.5ft 4s 16 20 mph 1022.8mb 42f 39f
5:04pm 2ft 4s 16 20 mph 1022.8mb 42f 39f
4:04pm 2ft 4s 13 16 mph 1022.9mb 42f 39f
3:04pm 1.6ft 4s 11 13 mph 1022.9mb 42f 39f
2:04pm 1.6ft 4s 13 16 mph 1022.7mb 42f 39f
1:04pm 2ft 4s 13 16 mph 1022.7mb 42f 39f
12:04pm 2ft 3s 13 16 mph 1023.7mb 42f 38f
11:04am 1.3ft 3s 13 16 mph 1023.9mb 42f 39f
10:04am 1.3ft 5s 13 16 mph 1024.5mb 42f 39f
9:04am 1ft 8s 9 11 mph 1024.4mb 42f 38f
8:04am 1ft 2s 11 13 mph 1023.8mb 42f 36f
7:04am 1ft 5s 9 11 mph 1022.8mb 42f 36f
6:04am 1.3ft 5s 9 11 mph 1022.3mb 42f 36f
5:04am 1.3ft 5s 7 9 mph 1021.5mb 42f 35f
4:04am 2ft 4s 7 9 mph 1021.6mb 42f 35f
3:04am 2.5ft 4s 16 18 mph 1021.2mb 42f 36f
2:04am 2ft 5s 18 22 mph 1020.6mb 42f 37f
1:04am 2.5ft 5s 18 22 mph 1020.3mb 42f 37f
12:04am 2.5ft 5s 20 25 mph 1020.4mb 42f 37f
Mon 01/16 11:04pm 2.5ft 5s 20 25 mph 1021mb 42f 37f
10:04pm 2.5ft 4s 20 25 mph 1021.6mb 41f 38f
9:04pm 2.5ft 4s 18 22 mph 1022mb 41f 38f
8:04pm 2.5ft 4s 20 25 mph 1022.3mb 41f 38f
7:04pm 3.5ft 5s 20 25 mph 1022.8mb 42f 39f